createdAt,value
2018-03-24T00:00:30.396Z,78.67
2018-03-24T00:01:10.983Z,78.67
2018-03-24T00:01:51.560Z,78.67
2018-03-24T00:02:32.214Z,78.67
2018-03-24T00:03:13.048Z,78.58
2018-03-24T00:03:53.660Z,78.67
2018-03-24T00:04:34.548Z,78.87
2018-03-24T00:05:15.142Z,78.87
2018-03-24T00:05:55.910Z,78.77
2018-03-24T00:06:36.534Z,78.96
2018-03-24T00:07:17.179Z,78.77
2018-03-24T00:07:57.733Z,78.49
2018-03-24T00:08:38.284Z,78.67
2018-03-24T00:09:18.868Z,78.49
2018-03-24T00:09:59.428Z,78.49
2018-03-24T00:10:40.319Z,78.39
2018-03-24T00:12:39.022Z,78.3
2018-03-24T00:13:19.573Z,78.58
2018-03-24T00:14:00.172Z,78.67
2018-03-24T00:14:40.744Z,78.3
2018-03-24T00:15:21.337Z,78.2
2018-03-24T00:16:01.924Z,78.2
2018-03-24T00:16:42.489Z,78.39
2018-03-24T00:17:23.065Z,78.49
2018-03-24T00:18:03.695Z,77.73
2018-03-24T00:18:44.268Z,77.64
2018-03-24T00:19:24.839Z,78.11
2018-03-24T00:20:05.516Z,77.64
2018-03-24T00:20:46.137Z,78.02
2018-03-24T00:21:26.819Z,77.73
2018-03-24T00:22:07.358Z,77.92
2018-03-24T00:22:47.968Z,77.83
2018-03-24T00:23:28.546Z,78.02
2018-03-24T00:24:09.122Z,77.83
2018-03-24T00:24:50.079Z,77.92
2018-03-24T00:25:30.932Z,78.02
2018-03-24T00:26:11.508Z,77.73
2018-03-24T00:26:52.059Z,77.73
2018-03-24T00:27:32.617Z,77.92
2018-03-24T00:28:13.197Z,77.83
2018-03-24T00:28:53.753Z,77.83
2018-03-24T00:29:34.370Z,77.92
2018-03-24T00:30:14.925Z,77.73
2018-03-24T00:30:55.628Z,77.64
2018-03-24T00:31:36.177Z,77.73
2018-03-24T00:32:16.785Z,77.54
2018-03-24T00:32:57.349Z,77.54
2018-03-24T00:33:37.927Z,77.45
2018-03-24T00:34:18.568Z,77.73
2018-03-24T00:34:59.163Z,77.45
2018-03-24T00:35:39.674Z,78.02
2018-03-24T00:36:20.284Z,77.73
2018-03-24T00:37:00.841Z,78.02
2018-03-24T00:37:41.447Z,77.73
2018-03-24T00:38:22.014Z,77.83
2018-03-24T00:39:02.595Z,77.92
2018-03-24T00:39:43.151Z,77.92
2018-03-24T00:40:23.699Z,77.83
2018-03-24T00:41:04.262Z,77.83
2018-03-24T00:41:44.814Z,78.3
2018-03-24T00:42:25.377Z,78.39
2018-03-24T00:43:06.043Z,78.2
2018-03-24T00:43:46.596Z,78.39
2018-03-24T00:44:27.153Z,78.39
2018-03-24T00:45:07.743Z,78.11
2018-03-24T00:45:48.298Z,77.64
2018-03-24T00:46:28.862Z,77.73
2018-03-24T00:47:09.460Z,77.92
2018-03-24T00:47:49.972Z,77.83
2018-03-24T00:48:30.540Z,77.92
2018-03-24T00:49:11.096Z,77.45
2018-03-24T00:49:51.658Z,77.45
2018-03-24T00:50:32.220Z,77.83
2018-03-24T00:51:12.793Z,77.35
2018-03-24T00:51:53.348Z,77.92
2018-03-24T00:52:33.949Z,77.92
2018-03-24T00:53:14.499Z,77.64
2018-03-24T00:53:55.057Z,77.83
2018-03-24T00:54:35.608Z,77.45
2018-03-24T00:55:16.167Z,77.45
2018-03-24T00:55:56.725Z,77.73
2018-03-24T00:56:37.279Z,77.16
2018-03-24T00:57:17.885Z,76.97
2018-03-24T00:57:58.433Z,77.16
2018-03-24T00:58:39.026Z,77.64
2018-03-24T00:59:19.626Z,77.64
2018-03-24T01:00:00.210Z,77.92
2018-03-24T01:00:40.794Z,77.54
2018-03-24T01:01:21.374Z,76.78
2018-03-24T01:02:02.006Z,76.97
2018-03-24T01:02:42.564Z,77.16
2018-03-24T01:03:23.136Z,76.78
2018-03-24T01:04:03.736Z,76.97
2018-03-24T01:04:44.317Z,77.16
2018-03-24T01:05:24.868Z,77.06
2018-03-24T01:06:05.510Z,77.16
2018-03-24T01:06:46.055Z,77.16
2018-03-24T01:07:26.604Z,77.06
2018-03-24T01:08:07.177Z,77.06
2018-03-24T01:08:47.772Z,77.16
2018-03-24T01:09:28.328Z,76.78
2018-03-24T01:10:08.891Z,77.35
2018-03-24T01:10:49.442Z,76.78
2018-03-24T01:11:29.991Z,76.78
2018-03-24T01:12:10.556Z,76.59
2018-03-24T01:12:51.105Z,76.97
2018-03-24T01:13:31.653Z,76.78
2018-03-24T01:14:12.231Z,77.06
2018-03-24T01:14:52.794Z,76.97
2018-03-24T01:15:33.348Z,77.16
2018-03-24T01:16:13.908Z,76.97
2018-03-24T01:16:54.458Z,77.16
2018-03-24T01:17:35.017Z,77.16
2018-03-24T01:18:15.581Z,77.16
2018-03-24T01:18:56.136Z,77.16
2018-03-24T01:19:36.771Z,77.16
2018-03-24T01:20:17.329Z,77.06
2018-03-24T01:20:57.882Z,77.06
2018-03-24T01:21:38.438Z,77.06
2018-03-24T01:22:18.999Z,76.97
2018-03-24T01:22:59.555Z,76.97
2018-03-24T01:23:40.119Z,77.16
2018-03-24T01:24:20.727Z,76.93
2018-03-24T01:25:01.287Z,76.74
2018-03-24T01:25:41.829Z,76.84
2018-03-24T01:26:22.393Z,76.93
2018-03-24T01:27:02.948Z,76.74
2018-03-24T01:27:43.579Z,77.12
2018-03-24T01:28:24.110Z,76.74
2018-03-24T01:29:04.766Z,77.03
2018-03-24T01:29:45.369Z,77.03
2018-03-24T01:30:25.954Z,76.78
2018-03-24T01:31:06.505Z,76.74
2018-03-24T01:31:47.075Z,76.93
2018-03-24T01:32:27.735Z,76.87
2018-03-24T01:33:08.306Z,76.93
2018-03-24T01:33:48.904Z,76.93
2018-03-24T01:34:29.462Z,76.87
2018-03-24T01:35:10.019Z,77.06
2018-03-24T01:35:50.582Z,76.87
2018-03-24T01:36:31.137Z,77.06
2018-03-24T01:37:11.700Z,77.16
2018-03-24T01:37:52.258Z,76.97
2018-03-24T01:38:32.816Z,76.87
2018-03-24T01:39:13.367Z,76.87
2018-03-24T01:39:53.932Z,77.06
2018-03-24T01:40:34.491Z,77.16
2018-03-24T01:41:15.080Z,76.97
2018-03-24T01:41:55.662Z,77.16
2018-03-24T01:42:36.211Z,77.16
2018-03-24T01:43:16.785Z,76.68
2018-03-24T01:43:57.327Z,76.59
2018-03-24T01:44:37.880Z,76.36
2018-03-24T01:45:18.422Z,76.59
2018-03-24T01:45:58.978Z,76.4
2018-03-24T01:46:39.532Z,76.31
2018-03-24T01:47:20.144Z,76.65
2018-03-24T01:48:00.714Z,76.27
2018-03-24T01:48:41.266Z,76.27
2018-03-24T01:49:21.816Z,76.68
2018-03-24T01:50:02.400Z,76.74
2018-03-24T01:50:42.957Z,76.74
2018-03-24T01:51:23.544Z,77.03
2018-03-24T01:52:04.076Z,77.12
2018-03-24T01:52:44.679Z,76.93
2018-03-24T01:53:25.223Z,76.55
2018-03-24T01:54:05.801Z,77.03
2018-03-24T01:54:46.355Z,77.03
2018-03-24T01:55:26.906Z,77.12
2018-03-24T01:56:07.471Z,76.84
2018-03-24T01:56:48.056Z,77.06
2018-03-24T01:57:28.597Z,76.55
2018-03-24T01:58:09.161Z,76.93
2018-03-24T01:58:49.717Z,76.93
2018-03-24T01:59:30.312Z,76.74
2018-03-24T02:00:10.834Z,77.22
2018-03-24T02:00:51.397Z,77.03
2018-03-24T02:01:31.962Z,76.93
2018-03-24T02:02:12.510Z,76.65
2018-03-24T02:02:53.083Z,76.55
2018-03-24T02:03:33.646Z,76.55
2018-03-24T02:04:14.207Z,76.55
2018-03-24T02:04:54.830Z,76.78
2018-03-24T02:05:35.394Z,76.46
2018-03-24T02:06:15.942Z,76.65
2018-03-24T02:06:56.507Z,76.74
2018-03-24T02:07:37.110Z,76.74
2018-03-24T02:08:17.671Z,77.12
2018-03-24T02:08:58.227Z,77.12
2018-03-24T02:09:38.841Z,77.03
2018-03-24T02:10:19.390Z,77.12
2018-03-24T02:10:59.960Z,76.84
2018-03-24T02:11:40.514Z,77.03
2018-03-24T02:12:21.084Z,77.03
2018-03-24T02:13:01.639Z,77.12
2018-03-24T02:13:42.206Z,76.68
2018-03-24T02:14:22.784Z,77.12
2018-03-24T02:15:03.340Z,77.03
2018-03-24T02:15:43.988Z,77.22
2018-03-24T02:16:24.521Z,76.46
2018-03-24T02:17:05.082Z,76.55
2018-03-24T02:17:45.647Z,76.59
2018-03-24T02:18:26.203Z,76.55
2018-03-24T02:19:06.766Z,76.46
2018-03-24T02:19:47.334Z,76.55
2018-03-24T02:20:27.883Z,76.74
2018-03-24T02:21:08.462Z,76.55
2018-03-24T02:21:49.024Z,76.74
2018-03-24T02:22:29.601Z,76.55
2018-03-24T02:23:10.162Z,76.74
2018-03-24T02:23:50.732Z,77.12
2018-03-24T02:24:31.302Z,77.03
2018-03-24T02:25:11.862Z,76.74
2018-03-24T02:25:52.415Z,76.74
2018-03-24T02:26:32.964Z,76.93
2018-03-24T02:27:13.540Z,77.12
2018-03-24T02:27:54.092Z,76.93
2018-03-24T02:28:34.647Z,77.12
2018-03-24T02:29:15.238Z,77.16
2018-03-24T02:29:55.775Z,76.84
2018-03-24T02:30:36.331Z,77.03
2018-03-24T02:31:16.907Z,76.74
2018-03-24T02:31:57.445Z,77.03
2018-03-24T02:32:38.007Z,76.46
2018-03-24T02:33:18.548Z,76.74
2018-03-24T02:33:59.109Z,76.55
2018-03-24T02:34:39.677Z,76.59
2018-03-24T02:35:20.242Z,76.68
2018-03-24T02:36:00.800Z,76.46
2018-03-24T02:36:41.452Z,76.46
2018-03-24T02:37:22.008Z,76.55
2018-03-24T02:38:02.582Z,76.65
2018-03-24T02:38:43.133Z,76.55
2018-03-24T02:39:23.680Z,76.55
2018-03-24T02:40:04.260Z,77.31
2018-03-24T02:40:44.837Z,77.4
2018-03-24T02:41:25.424Z,76.55
2018-03-24T02:42:06.023Z,76.84
2018-03-24T02:42:46.572Z,76.46
2018-03-24T02:43:27.107Z,76.93
2018-03-24T02:44:07.661Z,76.74
2018-03-24T02:44:48.236Z,76.46
2018-03-24T02:45:28.783Z,76.74
2018-03-24T02:46:09.338Z,76.93
2018-03-24T02:46:49.898Z,76.93
2018-03-24T02:47:30.455Z,76.93
2018-03-24T02:48:11.025Z,77.4
2018-03-24T02:48:51.596Z,76.93
2018-03-24T02:49:32.153Z,76.93
2018-03-24T02:50:12.739Z,77.12
2018-03-24T02:50:53.264Z,76.93
2018-03-24T02:51:33.854Z,77.12
2018-03-24T02:52:14.405Z,77.03
2018-03-24T02:52:54.969Z,76.93
2018-03-24T02:53:35.552Z,76.74
2018-03-24T02:54:16.105Z,77.03
2018-03-24T02:54:56.658Z,76.74
2018-03-24T02:55:37.230Z,76.93
2018-03-24T02:56:17.762Z,76.84
2018-03-24T02:56:58.316Z,77.03
2018-03-24T02:57:38.883Z,77.03
2018-03-24T02:58:19.430Z,76.93
2018-03-24T02:58:59.989Z,77.12
2018-03-24T02:59:40.633Z,77.25
2018-03-24T03:00:21.208Z,76.84
2018-03-24T03:01:01.766Z,76.78
2018-03-24T03:01:42.325Z,76.68
2018-03-24T03:02:22.911Z,76.93
2018-03-24T03:03:03.475Z,76.68
2018-03-24T03:03:44.040Z,76.97
2018-03-24T03:04:24.613Z,77.06
2018-03-24T03:05:05.171Z,76.97
2018-03-24T03:05:45.754Z,76.97
2018-03-24T03:06:26.281Z,76.31
2018-03-24T03:07:06.866Z,76.59
2018-03-24T03:07:47.393Z,76.5
2018-03-24T03:08:27.982Z,76.59
2018-03-24T03:09:08.531Z,76.68
2018-03-24T03:09:49.117Z,76.31
2018-03-24T03:10:29.682Z,76.68
2018-03-24T03:11:10.270Z,76.78
2018-03-24T03:11:50.813Z,77.03
2018-03-24T03:12:31.370Z,77.16
2018-03-24T03:13:11.966Z,76.97
2018-03-24T03:13:52.562Z,76.78
2018-03-24T03:14:33.162Z,76.78
2018-03-24T03:15:13.726Z,76.97
2018-03-24T03:15:54.290Z,76.78
2018-03-24T03:16:34.865Z,76.59
2018-03-24T03:17:15.432Z,76.87
2018-03-24T03:17:55.985Z,76.5
2018-03-24T03:18:36.555Z,76.21
2018-03-24T03:19:17.141Z,76.87
2018-03-24T03:19:57.702Z,76.59
2018-03-24T03:20:38.281Z,76.68
2018-03-24T03:21:18.875Z,76.78
2018-03-24T03:21:59.444Z,76.4
2018-03-24T03:22:39.979Z,76.68
2018-03-24T03:23:20.540Z,76.87
2018-03-24T03:24:01.092Z,76.93
2018-03-24T03:24:41.689Z,77.03
2018-03-24T03:25:22.289Z,77.25
2018-03-24T03:26:02.886Z,77.06
2018-03-24T03:26:43.419Z,76.78
2018-03-24T03:27:23.975Z,77.06
2018-03-24T03:28:04.558Z,77.06
2018-03-24T03:28:45.087Z,77.25
2018-03-24T03:29:25.636Z,77.45
2018-03-24T03:30:06.194Z,76.5
2018-03-24T03:30:46.759Z,77.25
2018-03-24T03:31:27.334Z,76.31
2018-03-24T03:32:07.869Z,76.65
2018-03-24T03:32:48.433Z,76.68
2018-03-24T03:33:28.990Z,76.59
2018-03-24T03:34:09.637Z,76.97
2018-03-24T03:34:50.310Z,76.87
2018-03-24T03:35:30.894Z,77.16
2018-03-24T03:36:11.486Z,76.78
2018-03-24T03:36:52.039Z,77.06
2018-03-24T03:37:32.624Z,77.06
2018-03-24T03:38:13.192Z,76.87
2018-03-24T03:38:53.748Z,77.25
2018-03-24T03:39:34.299Z,76.78
2018-03-24T03:40:14.872Z,76.59
2018-03-24T03:40:55.442Z,76.78
2018-03-24T03:41:36.072Z,77.16
2018-03-24T03:42:16.641Z,77.16
2018-03-24T03:42:57.196Z,76.97
2018-03-24T03:43:37.752Z,77.06
2018-03-24T03:44:18.315Z,76.97
2018-03-24T03:44:58.873Z,77.06
2018-03-24T03:45:39.423Z,77.06
2018-03-24T03:46:19.977Z,77.16
2018-03-24T03:47:00.526Z,76.97
2018-03-24T03:47:41.089Z,77.16
2018-03-24T03:48:21.788Z,77.25
2018-03-24T03:49:02.348Z,77.16
2018-03-24T03:49:42.947Z,76.97
2018-03-24T03:50:23.515Z,77.06
2018-03-24T03:51:04.067Z,77.25
2018-03-24T03:51:44.655Z,77.16
2018-03-24T03:52:25.211Z,77.16
2018-03-24T03:53:05.813Z,76.93
2018-03-24T03:53:46.369Z,76.97
2018-03-24T03:54:26.981Z,76.59
2018-03-24T03:55:07.508Z,76.97
2018-03-24T03:55:48.066Z,76.93
2018-03-24T03:56:28.646Z,77.12
2018-03-24T03:57:09.201Z,76.93
2018-03-24T03:57:49.772Z,77.06
2018-03-24T03:58:30.368Z,77.03
2018-03-24T03:59:10.887Z,76.93
2018-03-24T03:59:51.475Z,77.22
2018-03-24T04:00:32.043Z,77.03
2018-03-24T04:01:12.655Z,77.06
2018-03-24T04:01:53.237Z,76.93
2018-03-24T04:02:33.793Z,76.97
2018-03-24T04:03:14.363Z,77.88
2018-03-24T04:03:54.927Z,76.93
2018-03-24T04:04:35.477Z,76.93
2018-03-24T04:05:16.036Z,76.74
2018-03-24T04:05:56.588Z,77.16
2018-03-24T04:06:37.148Z,77.69
2018-03-24T04:07:17.702Z,77.45
2018-03-24T04:07:58.255Z,77.88
2018-03-24T04:08:38.802Z,77.59
2018-03-24T04:09:19.353Z,77.5
2018-03-24T04:09:59.906Z,77.4
2018-03-24T04:10:40.456Z,77.4
2018-03-24T04:11:21.009Z,77.78
2018-03-24T04:12:01.703Z,77.4
2018-03-24T04:12:42.256Z,77.59
2018-03-24T04:13:22.811Z,77.59
2018-03-24T04:14:03.361Z,77.97
2018-03-24T04:14:43.926Z,78.07
2018-03-24T04:15:24.473Z,77.97
2018-03-24T04:16:05.047Z,77.78
2018-03-24T04:16:45.605Z,78.35
2018-03-24T04:17:26.210Z,78.45
2018-03-24T04:18:06.785Z,78.35
2018-03-24T04:18:47.341Z,78.16
2018-03-24T04:19:27.915Z,78.35
2018-03-24T04:20:08.479Z,78.45
2018-03-24T04:20:49.020Z,77.97
2018-03-24T04:21:29.580Z,77.88
2018-03-24T04:22:10.153Z,77.69
2018-03-24T04:22:50.702Z,77.69
2018-03-24T04:23:31.273Z,77.97
2018-03-24T04:24:11.837Z,77.97
2018-03-24T04:24:52.393Z,77.78
2018-03-24T04:25:32.943Z,77.69
2018-03-24T04:26:13.507Z,77.88
2018-03-24T04:26:54.065Z,77.69
2018-03-24T04:27:34.633Z,77.88
2018-03-24T04:28:15.188Z,77.88
2018-03-24T04:28:55.762Z,77.59
2018-03-24T04:29:36.320Z,78.45
2018-03-24T04:30:16.882Z,78.26
2018-03-24T04:30:57.450Z,78.26
2018-03-24T04:31:38.016Z,78.35
2018-03-24T04:32:18.575Z,78.35
2018-03-24T04:32:59.136Z,78.35
2018-03-24T04:33:39.704Z,78.35
2018-03-24T04:34:20.259Z,78.26
2018-03-24T04:35:00.857Z,78.54
2018-03-24T04:35:41.421Z,78.26
2018-03-24T04:36:21.992Z,78.35
2018-03-24T04:37:02.550Z,78.26
2018-03-24T04:37:43.117Z,78.45
2018-03-24T04:38:23.721Z,78.35
2018-03-24T04:39:04.226Z,78.16
2018-03-24T04:39:44.774Z,78.54
2018-03-24T04:40:25.324Z,78.73
2018-03-24T04:41:05.878Z,78.73
2018-03-24T04:41:46.442Z,78.07
2018-03-24T04:42:26.999Z,78.35
2018-03-24T04:43:07.571Z,78.26
2018-03-24T04:43:48.137Z,78.26
2018-03-24T04:44:28.880Z,78.07
2018-03-24T04:45:09.430Z,78.54
2018-03-24T04:45:50.000Z,78.64
2018-03-24T04:46:30.603Z,78.54
2018-03-24T04:47:11.174Z,78.54
2018-03-24T04:47:51.727Z,78.54
2018-03-24T04:48:32.288Z,78.83
2018-03-24T04:49:12.836Z,78.83
2018-03-24T04:49:53.391Z,78.64
2018-03-24T04:50:33.960Z,77.97
2018-03-24T04:51:14.514Z,77.97
2018-03-24T04:51:55.073Z,78.54
2018-03-24T04:52:35.625Z,78.54
2018-03-24T04:53:16.193Z,78.39
2018-03-24T04:53:56.738Z,78.07
2018-03-24T04:54:37.305Z,78.45
2018-03-24T04:55:17.860Z,78.35
2018-03-24T04:55:58.415Z,78.49
2018-03-24T04:56:39.007Z,78.35
2018-03-24T04:57:19.568Z,78.07
2018-03-24T04:58:00.113Z,78.16
2018-03-24T04:58:40.676Z,77.97
2018-03-24T04:59:21.248Z,78.35
2018-03-24T05:00:01.838Z,78.26
2018-03-24T05:00:42.386Z,78.35
2018-03-24T05:01:22.945Z,78.16
2018-03-24T05:02:03.511Z,78.16
2018-03-24T05:02:44.076Z,78.35
2018-03-24T05:03:24.646Z,78.26
2018-03-24T05:04:05.205Z,77.97
2018-03-24T05:04:45.762Z,78.35
2018-03-24T05:05:26.392Z,78.35
2018-03-24T05:06:06.969Z,78.35
2018-03-24T05:06:47.548Z,78.64
2018-03-24T05:07:28.122Z,78.83
2018-03-24T05:08:08.672Z,78.92
2018-03-24T05:08:49.227Z,78.92
2018-03-24T05:09:29.809Z,78.92
2018-03-24T05:10:10.368Z,78.92
2018-03-24T05:10:50.926Z,78.64
2018-03-24T05:11:31.499Z,78.73
2018-03-24T05:12:12.132Z,78.92
2018-03-24T05:12:52.700Z,78.83
2018-03-24T05:13:33.259Z,78.83
2018-03-24T05:14:13.833Z,78.64
2018-03-24T05:14:54.428Z,78.83
2018-03-24T05:15:35.004Z,78.54
2018-03-24T05:16:15.566Z,78.73
2018-03-24T05:16:56.147Z,78.73
2018-03-24T05:17:36.679Z,78.83
2018-03-24T05:18:17.229Z,78.92
2018-03-24T05:18:57.772Z,78.92
2018-03-24T05:19:38.337Z,78.92
2018-03-24T05:20:18.906Z,78.64
2018-03-24T05:20:59.457Z,78.92
2018-03-24T05:21:40.004Z,78.83
2018-03-24T05:22:20.554Z,78.83
2018-03-24T05:23:01.108Z,78.54
2018-03-24T05:24:53.755Z,78.64
2018-03-24T05:25:34.302Z,78.92
2018-03-24T05:26:14.918Z,79.21
2018-03-24T05:26:55.443Z,78.83
2018-03-24T05:27:36.067Z,78.64
2018-03-24T05:28:16.605Z,78.92
2018-03-24T05:28:57.184Z,78.73
2018-03-24T05:29:37.758Z,79.02
2018-03-24T05:30:18.328Z,78.92
2018-03-24T05:30:58.875Z,79.02
2018-03-24T05:31:39.454Z,78.92
2018-03-24T05:32:19.995Z,78.73
2018-03-24T05:33:00.554Z,78.83
2018-03-24T05:33:41.132Z,78.73
2018-03-24T05:34:21.685Z,78.64
2018-03-24T05:35:02.262Z,78.92
2018-03-24T05:35:42.825Z,78.83
2018-03-24T05:36:23.369Z,78.73
2018-03-24T05:37:03.917Z,78.73
2018-03-24T05:37:44.468Z,78.73
2018-03-24T05:38:25.017Z,78.64
2018-03-24T05:39:05.705Z,78.83
2018-03-24T05:39:46.223Z,78.83
2018-03-24T05:40:26.926Z,78.92
2018-03-24T05:41:07.487Z,79.02
2018-03-24T05:41:48.039Z,78.83
2018-03-24T05:42:28.616Z,78.54
2018-03-24T05:43:09.167Z,78.83
2018-03-24T05:43:49.845Z,78.64
2018-03-24T05:44:30.418Z,78.64
2018-03-24T05:45:10.963Z,78.54
2018-03-24T05:45:51.541Z,78.73
2018-03-24T05:46:32.152Z,78.54
2018-03-24T05:47:12.713Z,78.73
2018-03-24T05:47:53.308Z,78.54
2018-03-24T05:48:33.858Z,78.83
2018-03-24T05:49:14.434Z,78.54
2018-03-24T05:49:55.016Z,78.83
2018-03-24T05:50:35.602Z,78.64
2018-03-24T05:51:16.159Z,78.35
2018-03-24T05:51:56.785Z,78.83
2018-03-24T05:52:37.343Z,78.92
2018-03-24T05:53:17.964Z,78.73
2018-03-24T05:53:58.565Z,78.73
2018-03-24T05:54:39.135Z,78.54
2018-03-24T05:55:19.794Z,78.83
2018-03-24T05:56:00.448Z,78.49
2018-03-24T05:57:47.925Z,78.87
2018-03-24T05:58:28.489Z,78.77
2018-03-24T05:59:09.057Z,78.67
2018-03-24T05:59:49.597Z,78.45
2018-03-24T06:01:37.153Z,78.26
2018-03-24T06:02:17.709Z,78.3
2018-03-24T06:02:58.291Z,78.11
2018-03-24T06:03:38.837Z,78.49
2018-03-24T06:04:19.394Z,78.02
2018-03-24T06:04:59.938Z,78.2
2018-03-24T06:05:40.512Z,78.11
2018-03-24T06:06:21.136Z,78.39
2018-03-24T06:07:01.744Z,78.11
2018-03-24T06:07:42.285Z,78.49
2018-03-24T06:08:22.861Z,78.2
2018-03-24T06:09:03.410Z,78.39
2018-03-24T06:09:43.983Z,78.49
2018-03-24T06:10:24.540Z,78.39
2018-03-24T06:11:05.091Z,78.3
2018-03-24T06:11:45.680Z,78.3
2018-03-24T06:12:26.234Z,78.49
2018-03-24T06:13:06.793Z,78.49
2018-03-24T06:13:47.346Z,78.39
2018-03-24T06:14:27.897Z,77.83
2018-03-24T06:15:08.456Z,77.92
2018-03-24T06:15:49.024Z,77.92
2018-03-24T06:16:29.582Z,77.45
2018-03-24T06:17:10.140Z,77.45
2018-03-24T06:17:50.711Z,77.54
2018-03-24T06:18:31.275Z,77.83
2018-03-24T06:19:11.830Z,77.64
2018-03-24T06:19:52.382Z,77.64
2018-03-24T06:20:32.942Z,77.45
2018-03-24T06:21:13.493Z,77.73
2018-03-24T06:21:54.045Z,77.73
2018-03-24T06:22:34.595Z,77.83
2018-03-24T06:23:15.157Z,77.64
2018-03-24T06:23:55.717Z,77.92
2018-03-24T06:24:36.307Z,77.45
2018-03-24T06:25:16.866Z,77.64
2018-03-24T06:25:57.425Z,77.45
2018-03-24T06:26:37.981Z,77.73
2018-03-24T06:27:18.535Z,77.92
2018-03-24T06:27:59.103Z,77.83
2018-03-24T06:28:39.914Z,78.02
2018-03-24T06:29:20.710Z,78.02
2018-03-24T06:30:01.913Z,77.83
2018-03-24T06:30:42.924Z,77.92
2018-03-24T06:31:24.078Z,77.54
2018-03-24T06:32:05.095Z,77.45
2018-03-24T06:32:46.231Z,77.64
2018-03-24T06:33:27.320Z,77.54
2018-03-24T06:34:08.544Z,77.54
2018-03-24T06:34:49.209Z,77.54
2018-03-24T06:35:29.761Z,77.35
2018-03-24T06:36:11.130Z,77.54
2018-03-24T06:36:52.088Z,77.64
2018-03-24T06:37:33.247Z,77.54
2018-03-24T06:38:13.965Z,77.45
2018-03-24T06:38:55.211Z,76.97
2018-03-24T06:39:36.274Z,77.83
2018-03-24T06:40:17.311Z,77.54
2018-03-24T06:40:58.674Z,77.83
2018-03-24T06:41:40.332Z,77.92
2018-03-24T06:42:21.336Z,77.92
2018-03-24T06:43:01.869Z,77.45
2018-03-24T06:43:42.429Z,77.54
2018-03-24T06:44:23.103Z,77.45
2018-03-24T06:45:03.668Z,77.45
2018-03-24T06:45:44.219Z,77.45
2018-03-24T06:46:25.096Z,77.45
2018-03-24T06:47:05.992Z,77.35
2018-03-24T06:47:46.536Z,77.73
2018-03-24T06:48:27.085Z,77.92
2018-03-24T06:49:08.116Z,77.83
2018-03-24T06:49:49.997Z,77.06
2018-03-24T06:50:30.563Z,76.97
2018-03-24T06:51:11.137Z,76.97
2018-03-24T06:51:51.803Z,77.06
2018-03-24T06:52:32.526Z,76.97
2018-03-24T06:53:13.185Z,77.25
2018-03-24T06:53:53.922Z,77.73
2018-03-24T06:54:34.487Z,77.35
2018-03-24T06:55:15.214Z,77.83
2018-03-24T06:55:56.110Z,77.83
2018-03-24T06:56:36.702Z,77.54
2018-03-24T06:57:17.288Z,77.45
2018-03-24T06:57:58.201Z,77.35
2018-03-24T06:58:38.993Z,77.35
2018-03-24T06:59:20.004Z,77.83
2018-03-24T07:00:00.699Z,77.83
2018-03-24T07:00:41.271Z,77.83
2018-03-24T07:01:21.832Z,77.64
2018-03-24T07:02:02.779Z,77.45
2018-03-24T07:02:43.533Z,77.64
2018-03-24T07:03:24.177Z,77.64
2018-03-24T07:04:04.768Z,77.35
2018-03-24T07:04:47.509Z,77.92
2018-03-24T07:05:28.454Z,77.16
2018-03-24T07:06:09.029Z,77.64
2018-03-24T07:06:49.585Z,77.64
2018-03-24T07:07:30.150Z,77.54
2018-03-24T07:08:11.023Z,77.64
2018-03-24T07:08:51.885Z,77.64
2018-03-24T07:09:33.590Z,77.06
2018-03-24T07:10:14.308Z,76.97
2018-03-24T07:10:54.870Z,77.06
2018-03-24T07:11:35.750Z,77.06
2018-03-24T07:12:16.863Z,76.97
2018-03-24T07:12:58.742Z,76.97
2018-03-24T07:13:40.241Z,77.06
2018-03-24T07:14:20.969Z,77.06
2018-03-24T07:15:01.783Z,76.59
2018-03-24T07:15:42.461Z,76.4
2018-03-24T07:16:23.006Z,76.5
2018-03-24T07:17:03.781Z,76.59
2018-03-24T07:17:44.553Z,76.78
2018-03-24T07:18:25.537Z,76.97
2018-03-24T07:19:06.095Z,77.06
2018-03-24T07:19:46.798Z,76.78
2018-03-24T07:20:27.699Z,77.16
2018-03-24T07:21:08.517Z,76.97
2018-03-24T07:21:49.066Z,77.06
2018-03-24T07:22:29.623Z,77.06
2018-03-24T07:23:10.192Z,77.06
2018-03-24T07:23:50.750Z,76.78
2018-03-24T07:24:31.576Z,76.59
2018-03-24T07:25:12.142Z,76.78
2018-03-24T07:25:52.693Z,76.5
2018-03-24T07:26:33.381Z,76.59
2018-03-24T07:27:14.177Z,76.5
2018-03-24T07:27:54.740Z,76.31
2018-03-24T07:28:35.306Z,76.4
2018-03-24T07:29:15.866Z,76.21
2018-03-24T07:29:56.863Z,76.03
2018-03-24T07:30:37.523Z,75.93
2018-03-24T07:31:18.146Z,76.03
2018-03-24T07:31:58.911Z,76.12
2018-03-24T07:32:39.684Z,76.03
2018-03-24T07:33:20.670Z,75.84
2018-03-24T07:34:01.388Z,75.64
2018-03-24T07:34:42.333Z,75.93
2018-03-24T07:35:22.996Z,75.74
2018-03-24T07:36:03.600Z,75.36
2018-03-24T07:36:44.237Z,75.17
2018-03-24T07:37:24.914Z,75.36
2018-03-24T07:38:05.582Z,75.45
2018-03-24T07:38:46.159Z,75.55
2018-03-24T07:39:26.811Z,75.36
2018-03-24T07:40:07.381Z,75.74
2018-03-24T07:40:48.069Z,74.88
2018-03-24T07:41:28.972Z,74.6
2018-03-24T07:42:09.890Z,74.88
2018-03-24T07:42:50.580Z,75.74
2018-03-24T07:43:31.470Z,75.55
2018-03-24T07:44:12.019Z,75.45
2018-03-24T07:44:52.594Z,75.36
2018-03-24T07:45:33.156Z,75.74
2018-03-24T07:46:13.750Z,78.67
2018-03-24T07:46:54.461Z,82.89
2018-03-24T07:47:35.063Z,80.9
2018-03-24T07:48:15.674Z,79.95
2018-03-24T07:48:56.303Z,80.52
2018-03-24T07:49:37.108Z,80.33
2018-03-24T07:50:18.033Z,80.56
2018-03-24T07:50:58.592Z,79.99
2018-03-24T07:51:39.146Z,79.14
2018-03-24T07:52:19.740Z,77.33
2018-03-24T07:53:00.298Z,74.39
2018-03-24T07:53:40.876Z,72.4
2018-03-24T07:54:21.410Z,71.36
2018-03-24T07:55:01.968Z,70.59
2018-03-24T07:55:42.510Z,70.4
2018-03-24T07:56:23.063Z,70.4
2018-03-24T07:57:03.652Z,70.78
2018-03-24T07:57:44.175Z,70.69
2018-03-24T07:58:24.754Z,70.65
2018-03-24T07:59:05.481Z,70.78
2018-03-24T07:59:46.000Z,71.13
2018-03-24T08:00:26.556Z,71.03
2018-03-24T08:01:07.117Z,71.32
2018-03-24T08:01:47.657Z,71.51
2018-03-24T08:02:28.217Z,72.08
2018-03-24T08:03:08.768Z,71.7
2018-03-24T08:03:49.303Z,72.36
2018-03-24T08:04:29.867Z,71.7
2018-03-24T08:05:10.401Z,72.08
2018-03-24T08:05:51.035Z,72.27
2018-03-24T08:06:31.636Z,71.7
2018-03-24T08:07:12.205Z,71.89
2018-03-24T08:07:52.773Z,71.8
2018-03-24T08:08:33.348Z,71.7
2018-03-24T08:09:13.914Z,71.51
2018-03-24T08:09:54.479Z,72.08
2018-03-24T08:10:35.090Z,72.08
2018-03-24T08:11:15.666Z,71.98
2018-03-24T08:11:56.202Z,71.98
2018-03-24T08:12:36.765Z,72.08
2018-03-24T08:13:17.399Z,72.08
2018-03-24T08:13:58.046Z,71.89
2018-03-24T08:14:38.892Z,72.27
2018-03-24T08:15:19.626Z,72.27
2018-03-24T08:16:00.337Z,71.89
2018-03-24T08:16:41.253Z,72.27
2018-03-24T08:17:21.974Z,72.64
2018-03-24T08:18:02.859Z,72.08
2018-03-24T08:18:43.724Z,72.17
2018-03-24T08:19:24.419Z,72.45
2018-03-24T08:20:05.223Z,72.45
2018-03-24T08:20:45.938Z,71.89
2018-03-24T08:21:26.675Z,72.36
2018-03-24T08:22:07.216Z,72.17
2018-03-24T08:22:48.139Z,72.08
2018-03-24T08:23:29.063Z,72.08
2018-03-24T08:24:09.850Z,72.74
2018-03-24T08:24:50.518Z,72.27
2018-03-24T08:25:32.010Z,72.17
2018-03-24T08:26:12.790Z,72.45
2018-03-24T08:26:53.325Z,72.36
2018-03-24T08:27:33.886Z,71.8
2018-03-24T08:28:14.451Z,71.6
2018-03-24T08:28:55.017Z,71.8
2018-03-24T08:29:35.560Z,72.08
2018-03-24T08:30:16.123Z,71.89
2018-03-24T08:30:56.682Z,72.27
2018-03-24T08:31:37.303Z,71.98
2018-03-24T08:32:17.893Z,71.89
2018-03-24T08:32:58.439Z,72.08
2018-03-24T08:33:39.274Z,72.08
2018-03-24T08:34:19.819Z,71.8
2018-03-24T08:35:00.378Z,71.89
2018-03-24T08:35:40.935Z,71.89
2018-03-24T08:36:21.489Z,71.8
2018-03-24T08:37:02.068Z,71.98
2018-03-24T08:37:42.617Z,71.7
2018-03-24T08:38:23.196Z,71.8
2018-03-24T08:39:03.739Z,71.6
2018-03-24T08:39:44.309Z,71.41
2018-03-24T08:40:24.878Z,71.8
2018-03-24T08:41:05.404Z,71.7
2018-03-24T08:41:45.971Z,71.51
2018-03-24T08:42:26.518Z,71.89
2018-03-24T08:43:07.075Z,71.7
2018-03-24T08:43:47.634Z,71.51
2018-03-24T08:44:28.193Z,71.51
2018-03-24T08:45:08.753Z,71.6
2018-03-24T08:45:49.319Z,71.51
2018-03-24T08:46:29.871Z,71.8
2018-03-24T08:47:10.434Z,71.89
2018-03-24T08:47:50.992Z,71.98
2018-03-24T08:48:31.555Z,71.41
2018-03-24T08:49:12.110Z,71.8